createdAt,value
2018-07-24T00:00:19.179Z,0
2018-07-24T00:01:21.174Z,0
2018-07-24T00:02:23.451Z,0
2018-07-24T00:03:25.442Z,0
2018-07-24T00:04:27.438Z,0
2018-07-24T00:05:29.429Z,0
2018-07-24T00:06:31.424Z,0
2018-07-24T00:07:33.427Z,0
2018-07-24T00:08:35.428Z,0
2018-07-24T00:09:37.421Z,0
2018-07-24T00:10:39.723Z,0
2018-07-24T00:11:41.717Z,0
2018-07-24T00:12:43.710Z,0
2018-07-24T00:13:45.711Z,0
2018-07-24T00:14:47.700Z,0
2018-07-24T00:15:49.699Z,0
2018-07-24T00:16:52.289Z,0
2018-07-24T00:17:54.717Z,0
2018-07-24T00:18:56.696Z,0
2018-07-24T00:19:58.701Z,0
2018-07-24T00:21:00.991Z,0
2018-07-24T00:22:02.986Z,0
2018-07-24T00:23:04.994Z,0
2018-07-24T00:24:06.985Z,0
2018-07-24T00:25:08.995Z,0
2018-07-24T00:26:10.990Z,0
2018-07-24T00:27:12.995Z,0
2018-07-24T00:28:15.267Z,0
2018-07-24T00:29:17.262Z,0
2018-07-24T00:30:19.262Z,0
2018-07-24T00:31:21.260Z,0
2018-07-24T00:32:23.245Z,0
2018-07-24T00:33:25.240Z,0
2018-07-24T00:34:27.231Z,0
2018-07-24T00:35:29.232Z,0
2018-07-24T00:36:31.242Z,0
2018-07-24T00:37:33.547Z,0
2018-07-24T00:38:35.548Z,0
2018-07-24T00:39:37.542Z,0
2018-07-24T00:40:39.532Z,0
2018-07-24T00:41:41.534Z,0
2018-07-24T00:42:43.536Z,0
2018-07-24T00:43:45.521Z,0
2018-07-24T00:44:47.801Z,0
2018-07-24T00:45:49.797Z,0
2018-07-24T00:46:51.789Z,0
2018-07-24T00:47:53.802Z,0
2018-07-24T00:48:56.174Z,0
2018-07-24T00:49:58.171Z,0
2018-07-24T00:51:00.163Z,0
2018-07-24T00:52:02.161Z,0
2018-07-24T00:53:04.168Z,0
2018-07-24T00:54:06.622Z,0
2018-07-24T00:55:08.927Z,0
2018-07-24T00:56:10.934Z,0
2018-07-24T00:57:13.314Z,0
2018-07-24T00:58:15.309Z,0
2018-07-24T00:59:17.583Z,0
2018-07-24T01:00:19.590Z,0
2018-07-24T01:01:21.590Z,0
2018-07-24T01:02:23.584Z,0
2018-07-24T01:03:25.893Z,0
2018-07-24T01:04:28.157Z,0
2018-07-24T01:05:30.158Z,0
2018-07-24T01:06:32.153Z,0
2018-07-24T01:07:34.144Z,0
2018-07-24T01:08:37.068Z,0
2018-07-24T01:09:39.288Z,0
2018-07-24T01:10:41.289Z,0
2018-07-24T01:11:43.586Z,0
2018-07-24T01:12:45.580Z,0
2018-07-24T01:13:47.570Z,0
2018-07-24T01:14:49.564Z,0
2018-07-24T01:15:51.563Z,0
2018-07-24T01:16:53.547Z,0
2018-07-24T01:17:55.543Z,0
2018-07-24T01:18:57.542Z,0
2018-07-24T01:20:00.192Z,0
2018-07-24T01:21:02.199Z,0
2018-07-24T01:22:04.577Z,0
2018-07-24T01:23:06.854Z,0
2018-07-24T01:24:09.228Z,0
2018-07-24T01:25:11.236Z,0
2018-07-24T01:26:13.225Z,0
2018-07-24T01:27:15.560Z,0
2018-07-24T01:28:17.518Z,0
2018-07-24T01:29:19.781Z,0
2018-07-24T01:30:21.783Z,0
2018-07-24T01:31:23.776Z,0
2018-07-24T01:32:25.775Z,0
2018-07-24T01:33:27.770Z,0
2018-07-24T01:34:30.337Z,0
2018-07-24T01:35:32.338Z,0
2018-07-24T01:36:34.618Z,0
2018-07-24T01:37:36.634Z,0
2018-07-24T01:38:39.014Z,0
2018-07-24T01:39:41.016Z,0
2018-07-24T01:40:43.022Z,0
2018-07-24T01:41:45.024Z,0
2018-07-24T01:42:47.019Z,0
2018-07-24T01:43:49.021Z,0
2018-07-24T01:44:51.297Z,0
2018-07-24T01:45:53.300Z,0
2018-07-24T01:46:55.307Z,0
2018-07-24T01:47:57.305Z,0
2018-07-24T01:48:59.971Z,0
2018-07-24T01:50:01.980Z,0
2018-07-24T01:51:04.260Z,0
2018-07-24T01:52:06.308Z,0
2018-07-24T01:53:08.269Z,0
2018-07-24T01:54:10.259Z,0
2018-07-24T01:55:12.279Z,0
2018-07-24T01:56:14.573Z,0
2018-07-24T01:57:16.580Z,0
2018-07-24T01:58:18.573Z,0
2018-07-24T01:59:20.578Z,0
2018-07-24T02:00:22.575Z,0
2018-07-24T02:01:24.569Z,0
2018-07-24T02:02:26.580Z,0
2018-07-24T02:03:28.578Z,0
2018-07-24T02:04:30.580Z,0
2018-07-24T02:05:32.581Z,0
2018-07-24T02:06:34.595Z,0
2018-07-24T02:07:36.894Z,0
2018-07-24T02:08:38.895Z,0
2018-07-24T02:09:40.895Z,0
2018-07-24T02:10:42.903Z,0
2018-07-24T02:11:45.285Z,0
2018-07-24T02:12:47.282Z,0
2018-07-24T02:13:49.574Z,0
2018-07-24T02:14:51.865Z,0
2018-07-24T02:15:54.165Z,0
2018-07-24T02:16:56.169Z,0
2018-07-24T02:17:58.459Z,0
2018-07-24T02:19:00.743Z,0
2018-07-24T02:20:03.421Z,0
2018-07-24T02:21:05.421Z,0
2018-07-24T02:22:07.698Z,0
2018-07-24T02:23:09.704Z,0
2018-07-24T02:24:11.703Z,0
2018-07-24T02:25:13.707Z,0
2018-07-24T02:26:15.711Z,0
2018-07-24T02:27:17.700Z,0
2018-07-24T02:28:19.706Z,0
2018-07-24T02:29:22.012Z,0
2018-07-24T02:30:24.402Z,0
2018-07-24T02:31:26.390Z,0
2018-07-24T02:32:28.678Z,0
2018-07-24T02:33:30.959Z,0
2018-07-24T02:34:33.234Z,0
2018-07-24T02:35:35.246Z,0
2018-07-24T02:36:37.908Z,0
2018-07-24T02:37:40.205Z,0
2018-07-24T02:38:42.206Z,0
2018-07-24T02:39:44.215Z,0
2018-07-24T02:40:46.215Z,0
2018-07-24T02:41:48.504Z,0
2018-07-24T02:42:50.791Z,0
2018-07-24T02:43:53.084Z,0
2018-07-24T02:44:55.092Z,0
2018-07-24T02:45:57.094Z,0
2018-07-24T02:46:59.091Z,0
2018-07-24T02:48:01.375Z,0
2018-07-24T02:49:03.380Z,0
2018-07-24T02:50:05.384Z,0
2018-07-24T02:51:07.393Z,0
2018-07-24T02:52:09.393Z,0
2018-07-24T02:53:12.232Z,0
2018-07-24T02:54:14.625Z,0
2018-07-24T02:55:17.609Z,0
2018-07-24T02:56:19.885Z,0
2018-07-24T02:57:21.887Z,0
2018-07-24T02:58:23.887Z,0
2018-07-24T02:59:26.549Z,0
2018-07-24T03:00:28.845Z,0
2018-07-24T03:01:31.149Z,0
2018-07-24T03:02:33.474Z,0
2018-07-24T03:03:35.441Z,0
2018-07-24T03:04:37.464Z,0
2018-07-24T03:05:39.460Z,0
2018-07-24T03:06:41.464Z,0
2018-07-24T03:07:43.471Z,0
2018-07-24T03:08:45.460Z,0
2018-07-24T03:09:47.743Z,0
2018-07-24T03:10:49.741Z,1
2018-07-24T03:11:51.743Z,1
2018-07-24T03:12:53.735Z,1
2018-07-24T03:13:55.739Z,1
2018-07-24T03:14:57.742Z,1
2018-07-24T03:15:59.743Z,1
2018-07-24T03:17:02.044Z,1
2018-07-24T03:18:04.335Z,1
2018-07-24T03:19:06.340Z,1
2018-07-24T03:20:08.648Z,2
2018-07-24T03:21:10.644Z,2
2018-07-24T03:22:13.026Z,2
2018-07-24T03:23:15.409Z,2
2018-07-24T03:24:17.417Z,2
2018-07-24T03:25:19.700Z,2
2018-07-24T03:26:22.078Z,2
2018-07-24T03:27:24.084Z,3
2018-07-24T03:28:26.097Z,3
2018-07-24T03:29:28.367Z,3
2018-07-24T03:30:30.369Z,3
2018-07-24T03:31:32.770Z,3
2018-07-24T03:32:34.758Z,3
2018-07-24T03:33:36.768Z,4
2018-07-24T03:34:38.767Z,4
2018-07-24T03:35:40.770Z,4
2018-07-24T03:36:42.821Z,4
2018-07-24T03:37:44.833Z,4
2018-07-24T03:38:46.832Z,5
2018-07-24T03:39:48.831Z,5
2018-07-24T03:40:51.219Z,5
2018-07-24T03:41:53.208Z,5
2018-07-24T03:42:55.495Z,6
2018-07-24T03:43:57.882Z,6
2018-07-24T03:45:00.193Z,6
2018-07-24T03:46:02.162Z,6
2018-07-24T03:47:04.174Z,6
2018-07-24T03:48:06.469Z,7
2018-07-24T03:49:08.752Z,7
2018-07-24T03:50:10.764Z,7
2018-07-24T03:51:13.147Z,7
2018-07-24T03:52:15.428Z,8
2018-07-24T03:53:17.430Z,8
2018-07-24T03:54:19.713Z,8
2018-07-24T03:55:21.708Z,8
2018-07-24T03:56:23.712Z,8
2018-07-24T03:57:25.706Z,9
2018-07-24T03:58:27.707Z,9
2018-07-24T03:59:30.098Z,9
2018-07-24T04:00:32.097Z,9
2018-07-24T04:01:34.101Z,10
2018-07-24T04:02:36.775Z,10
2018-07-24T04:03:38.778Z,10
2018-07-24T04:04:40.780Z,10
2018-07-24T04:05:42.774Z,10
2018-07-24T04:06:45.073Z,11
2018-07-24T04:07:47.077Z,11
2018-07-24T04:08:49.081Z,11
2018-07-24T04:09:51.076Z,11
2018-07-24T04:10:53.085Z,12
2018-07-24T04:11:55.084Z,12
2018-07-24T04:12:57.084Z,12
2018-07-24T04:13:59.089Z,12
2018-07-24T04:15:01.083Z,12
2018-07-24T04:16:03.090Z,13
2018-07-24T04:17:05.091Z,13
2018-07-24T04:18:07.477Z,13
2018-07-24T04:19:09.861Z,13
2018-07-24T04:20:11.866Z,14
2018-07-24T04:21:13.869Z,14
2018-07-24T04:22:15.871Z,14
2018-07-24T04:23:18.277Z,14
2018-07-24T04:24:20.571Z,14
2018-07-24T04:25:22.572Z,15
2018-07-24T04:26:24.580Z,15
2018-07-24T04:27:26.965Z,15
2018-07-24T04:28:28.967Z,15
2018-07-24T04:29:31.260Z,15
2018-07-24T04:30:33.254Z,15
2018-07-24T04:31:35.536Z,15
2018-07-24T04:32:37.544Z,15
2018-07-24T04:33:39.550Z,15
2018-07-24T04:34:41.547Z,15
2018-07-24T04:35:43.560Z,16
2018-07-24T04:36:45.562Z,16
2018-07-24T04:37:47.566Z,16
2018-07-24T04:38:49.566Z,16
2018-07-24T04:39:52.081Z,16
2018-07-24T04:40:54.032Z,16
2018-07-24T04:41:56.421Z,17
2018-07-24T04:42:58.417Z,17
2018-07-24T04:44:00.430Z,17
2018-07-24T04:45:02.428Z,17
2018-07-24T04:46:04.431Z,17
2018-07-24T04:47:06.437Z,18
2018-07-24T04:48:08.438Z,18
2018-07-24T04:49:10.433Z,18
2018-07-24T04:50:12.434Z,18
2018-07-24T04:51:14.441Z,18
2018-07-24T04:52:16.435Z,18
2018-07-24T04:53:18.444Z,19
2018-07-24T04:54:20.444Z,19
2018-07-24T04:55:22.447Z,19
2018-07-24T04:56:24.462Z,19
2018-07-24T04:57:26.458Z,19
2018-07-24T04:58:28.459Z,20
2018-07-24T04:59:30.470Z,20
2018-07-24T05:00:32.470Z,20
2018-07-24T05:01:34.753Z,20
2018-07-24T05:02:36.823Z,20
2018-07-24T05:03:38.754Z,21
2018-07-24T05:04:40.760Z,21
2018-07-24T05:05:42.768Z,21
2018-07-24T05:06:44.773Z,21
2018-07-24T05:07:47.050Z,21
2018-07-24T05:08:49.346Z,21
2018-07-24T05:09:51.347Z,21
2018-07-24T05:10:53.734Z,22
2018-07-24T05:11:56.031Z,22
2018-07-24T05:12:58.015Z,22
2018-07-24T05:14:00.307Z,22
2018-07-24T05:15:02.599Z,22
2018-07-24T05:16:04.991Z,22
2018-07-24T05:17:06.982Z,22
2018-07-24T05:18:08.990Z,22
2018-07-24T05:19:11.271Z,23
2018-07-24T05:20:13.657Z,23
2018-07-24T05:21:15.669Z,24
2018-07-24T05:22:17.671Z,23
2018-07-24T05:23:19.677Z,23
2018-07-24T05:24:21.679Z,23
2018-07-24T05:25:23.974Z,23
2018-07-24T05:26:25.972Z,24
2018-07-24T05:27:27.981Z,24
2018-07-24T05:28:30.261Z,24
2018-07-24T05:29:32.252Z,24
2018-07-24T05:30:34.257Z,24
2018-07-24T05:31:36.646Z,24
2018-07-24T05:32:38.925Z,24
2018-07-24T05:33:40.933Z,25
2018-07-24T05:34:42.942Z,25
2018-07-24T05:35:45.328Z,25
2018-07-24T05:36:47.340Z,25
2018-07-24T05:37:49.342Z,25
2018-07-24T05:38:51.352Z,25
2018-07-24T05:39:54.008Z,25
2018-07-24T05:40:56.304Z,25
2018-07-24T05:41:58.685Z,25
2018-07-24T05:43:00.690Z,25
2018-07-24T05:44:02.699Z,25
2018-07-24T05:45:04.696Z,25
2018-07-24T05:46:06.998Z,25
2018-07-24T05:47:09.000Z,25
2018-07-24T05:48:11.587Z,25
2018-07-24T05:49:13.585Z,25
2018-07-24T05:50:15.602Z,26
2018-07-24T05:51:17.601Z,26
2018-07-24T05:52:19.892Z,26
2018-07-24T05:53:22.194Z,26
2018-07-24T05:54:24.225Z,26
2018-07-24T05:55:26.200Z,26
2018-07-24T05:56:28.209Z,26
2018-07-24T05:57:30.214Z,26
2018-07-24T05:58:32.234Z,27
2018-07-24T05:59:34.222Z,27
2018-07-24T06:00:36.610Z,27
2018-07-24T06:01:38.898Z,27
2018-07-24T06:02:40.892Z,27
2018-07-24T06:03:42.903Z,27
2018-07-24T06:04:44.909Z,27
2018-07-24T06:05:46.907Z,28
2018-07-24T06:06:48.917Z,28
2018-07-24T06:07:51.212Z,28
2018-07-24T06:08:53.499Z,28
2018-07-24T06:09:55.510Z,28
2018-07-24T06:10:57.514Z,28
2018-07-24T06:11:59.511Z,28
2018-07-24T06:13:01.564Z,28
2018-07-24T06:14:03.526Z,29
2018-07-24T06:15:05.518Z,29
2018-07-24T06:16:07.525Z,29
2018-07-24T06:17:10.043Z,29
2018-07-24T06:18:12.426Z,29
2018-07-24T06:19:14.442Z,29
2018-07-24T06:20:16.454Z,29
2018-07-24T06:21:18.454Z,29
2018-07-24T06:22:20.731Z,30
2018-07-24T06:23:22.749Z,30
2018-07-24T06:24:24.753Z,30
2018-07-24T06:25:27.141Z,30
2018-07-24T06:26:29.153Z,30
2018-07-24T06:27:31.151Z,30
2018-07-24T06:28:33.162Z,30
2018-07-24T06:29:35.452Z,31
2018-07-24T06:30:37.462Z,31
2018-07-24T06:31:39.454Z,31
2018-07-24T06:32:41.462Z,31
2018-07-24T06:33:43.852Z,31
2018-07-24T06:34:45.857Z,31
2018-07-24T06:35:48.236Z,31
2018-07-24T06:36:50.631Z,31
2018-07-24T06:37:52.641Z,32
2018-07-24T06:38:54.642Z,32
2018-07-24T06:39:56.649Z,32
2018-07-24T06:40:58.662Z,32
2018-07-24T06:42:00.951Z,32
2018-07-24T06:43:03.633Z,32
2018-07-24T06:44:05.642Z,32
2018-07-24T06:45:07.643Z,32
2018-07-24T06:46:09.651Z,33
2018-07-24T06:47:11.952Z,33
2018-07-24T06:48:14.231Z,33
2018-07-24T06:49:16.240Z,33
2018-07-24T06:50:18.242Z,33
2018-07-24T06:51:21.329Z,33
2018-07-24T06:52:24.152Z,33
2018-07-24T06:53:26.164Z,33
2018-07-24T06:54:28.554Z,33
2018-07-24T06:55:30.560Z,34
2018-07-24T06:56:32.597Z,34
2018-07-24T06:57:34.580Z,34
2018-07-24T06:58:36.588Z,34
2018-07-24T06:59:38.602Z,34
2018-07-24T07:00:40.599Z,34
2018-07-24T07:01:42.612Z,34
2018-07-24T07:02:44.620Z,34
2018-07-24T07:03:46.626Z,34
2018-07-24T07:04:48.907Z,35
2018-07-24T07:05:50.923Z,35
2018-07-24T07:06:52.931Z,35
2018-07-24T07:07:54.941Z,35
2018-07-24T07:08:56.966Z,35
2018-07-24T07:09:59.263Z,35
2018-07-24T07:11:01.543Z,35
2018-07-24T07:12:03.547Z,35
2018-07-24T07:13:05.666Z,35
2018-07-24T07:14:08.066Z,35
2018-07-24T07:15:10.074Z,35
2018-07-24T07:16:12.150Z,36
2018-07-24T07:17:14.115Z,36
2018-07-24T07:18:16.409Z,36
2018-07-24T07:19:18.417Z,36
2018-07-24T07:20:20.431Z,36
2018-07-24T07:21:22.428Z,36
2018-07-24T07:22:24.445Z,36
2018-07-24T07:23:26.877Z,36
2018-07-24T07:24:28.805Z,36
2018-07-24T07:25:30.820Z,37
2018-07-24T07:26:32.830Z,37
2018-07-24T07:27:35.414Z,37
2018-07-24T07:28:37.415Z,37
2018-07-24T07:29:39.434Z,37
2018-07-24T07:30:41.443Z,37
2018-07-24T07:31:43.456Z,37
2018-07-24T07:32:45.470Z,38
2018-07-24T07:33:47.478Z,38
2018-07-24T07:34:50.158Z,38
2018-07-24T07:35:52.168Z,38
2018-07-24T07:36:54.177Z,38
2018-07-24T07:37:56.186Z,38
2018-07-24T07:38:58.201Z,39
2018-07-24T07:40:00.512Z,39
2018-07-24T07:41:02.524Z,39
2018-07-24T07:42:05.215Z,39
2018-07-24T07:43:07.224Z,39
2018-07-24T07:44:09.535Z,40
2018-07-24T07:45:11.852Z,40
2018-07-24T07:46:13.857Z,40
2018-07-24T07:47:15.863Z,40
2018-07-24T07:48:17.881Z,40
2018-07-24T07:49:19.889Z,40
2018-07-24T07:50:21.900Z,40
2018-07-24T07:51:24.315Z,40
2018-07-24T07:52:26.637Z,41
2018-07-24T07:53:28.627Z,41
2018-07-24T07:54:30.647Z,41
2018-07-24T07:55:32.658Z,41
2018-07-24T07:56:35.061Z,41
2018-07-24T07:57:37.085Z,41
2018-07-24T07:58:39.094Z,41
2018-07-24T07:59:41.090Z,41
2018-07-24T08:00:43.112Z,41
2018-07-24T08:01:45.133Z,42
2018-07-24T08:02:47.426Z,42
2018-07-24T08:03:49.443Z,42
2018-07-24T08:04:51.455Z,42
2018-07-24T08:05:53.463Z,42
2018-07-24T08:06:55.769Z,42
2018-07-24T08:07:58.406Z,42
2018-07-24T08:09:01.098Z,42
2018-07-24T08:10:03.286Z,42
2018-07-24T08:11:06.049Z,42
2018-07-24T08:12:08.428Z,43
2018-07-24T08:13:10.765Z,43
2018-07-24T08:14:13.338Z,43
2018-07-24T08:15:15.304Z,43
2018-07-24T08:16:17.362Z,44
2018-07-24T08:17:19.412Z,44
2018-07-24T08:18:21.460Z,44
2018-07-24T08:19:23.509Z,44
2018-07-24T08:20:25.567Z,44
2018-07-24T08:21:28.296Z,45
2018-07-24T08:22:30.357Z,44
2018-07-24T08:23:32.411Z,44
2018-07-24T08:24:34.458Z,44
2018-07-24T08:25:36.513Z,44
2018-07-24T08:26:38.849Z,45
2018-07-24T08:27:41.221Z,51
2018-07-24T08:28:43.259Z,94
2018-07-24T08:29:45.309Z,122
2018-07-24T08:30:47.364Z,104
2018-07-24T08:31:49.411Z,109
2018-07-24T08:32:51.461Z,102
2018-07-24T08:33:54.089Z,107
2018-07-24T08:34:56.152Z,103
2018-07-24T08:35:58.781Z,107
2018-07-24T08:37:00.841Z,107
2018-07-24T08:38:02.897Z,112
2018-07-24T08:39:04.945Z,154
2018-07-24T08:40:07.008Z,256
2018-07-24T08:41:09.062Z,307
2018-07-24T08:42:11.113Z,308
2018-07-24T08:43:13.166Z,325
2018-07-24T08:44:15.227Z,307
2018-07-24T08:45:17.275Z,303
2018-07-24T08:46:19.780Z,312
2018-07-24T08:47:21.837Z,303
2018-07-24T08:48:23.884Z,292
2018-07-24T08:49:25.958Z,284
2018-07-24T08:50:28.398Z,267
2018-07-24T08:51:30.450Z,264
2018-07-24T08:52:33.514Z,267
2018-07-24T08:53:36.488Z,262
2018-07-24T08:54:39.927Z,254
2018-07-24T08:55:42.029Z,252
2018-07-24T08:56:43.803Z,258
2018-07-24T08:57:45.996Z,260
2018-07-24T08:58:48.188Z,277
2018-07-24T08:59:50.249Z,299
2018-07-24T09:00:52.295Z,310
2018-07-24T09:01:54.347Z,314
2018-07-24T09:02:56.426Z,336
2018-07-24T09:03:58.461Z,358
2018-07-24T09:05:00.803Z,358
2018-07-24T09:06:03.536Z,346
2018-07-24T09:07:05.589Z,349
2018-07-24T09:08:07.827Z,378
2018-07-24T09:09:09.872Z,360
2018-07-24T09:10:11.942Z,350
2018-07-24T09:11:13.997Z,362
2018-07-24T09:12:16.336Z,378
2018-07-24T09:13:18.400Z,357
2018-07-24T09:14:20.448Z,358
2018-07-24T09:15:22.800Z,386
2018-07-24T09:16:24.860Z,375
2018-07-24T09:17:27.210Z,368
2018-07-24T09:18:29.263Z,390
2018-07-24T09:19:31.318Z,357
2018-07-24T09:20:33.373Z,332
2018-07-24T09:21:35.705Z,328
2018-07-24T09:22:38.051Z,337
2018-07-24T09:23:40.107Z,333
2018-07-24T09:24:42.155Z,345
2018-07-24T09:25:44.786Z,338
2018-07-24T09:26:46.847Z,328
2018-07-24T09:27:49.363Z,366
2018-07-24T09:28:51.428Z,407
2018-07-24T09:29:53.874Z,367
2018-07-24T09:30:55.920Z,358
2018-07-24T09:31:58.334Z,395
2018-07-24T09:33:00.675Z,417
2018-07-24T09:34:02.720Z,433
2018-07-24T09:35:04.787Z,433
2018-07-24T09:36:07.240Z,413
2018-07-24T09:37:12.631Z,390
2018-07-24T09:38:20.731Z,341
2018-07-24T09:39:26.741Z,318
2018-07-24T09:40:35.187Z,311
2018-07-24T09:41:43.673Z,300
2018-07-24T09:42:46.615Z,324
2018-07-24T09:43:56.758Z,381
2018-07-24T09:45:04.502Z,425
2018-07-24T09:46:09.307Z,449
2018-07-24T09:47:11.381Z,388
2018-07-24T09:48:13.431Z,335
2018-07-24T09:49:15.496Z,380
2018-07-24T09:50:17.834Z,449
2018-07-24T09:51:19.904Z,453
2018-07-24T09:52:21.958Z,441
2018-07-24T09:53:24.018Z,446
2018-07-24T09:54:26.473Z,438
2018-07-24T09:55:28.510Z,407
2018-07-24T09:56:31.283Z,391
2018-07-24T09:57:33.309Z,431
2018-07-24T09:58:35.364Z,409
2018-07-24T09:59:37.809Z,397
2018-07-24T10:00:39.872Z,433
2018-07-24T10:01:41.932Z,443
2018-07-24T10:02:44.285Z,454
2018-07-24T10:03:46.349Z,459
2018-07-24T10:04:48.401Z,464
2018-07-24T10:05:50.462Z,446
2018-07-24T10:06:52.530Z,373
2018-07-24T10:07:54.581Z,375
2018-07-24T10:08:56.643Z,408
2018-07-24T10:09:58.708Z,435
2018-07-24T10:11:01.605Z,398
2018-07-24T10:12:03.645Z,414
2018-07-24T10:13:07.284Z,442
2018-07-24T10:14:09.280Z,402
2018-07-24T10:15:11.336Z,429
2018-07-24T10:16:14.103Z,457
2018-07-24T10:17:16.165Z,447
2018-07-24T10:18:18.229Z,469
2018-07-24T10:19:20.293Z,427
2018-07-24T10:20:22.637Z,412
2018-07-24T10:21:24.988Z,430
2018-07-24T10:22:27.773Z,444
2018-07-24T10:23:29.825Z,415
2018-07-24T10:24:31.913Z,427
2018-07-24T10:25:34.260Z,420
2018-07-24T10:26:36.323Z,407
2018-07-24T10:27:39.072Z,407
2018-07-24T10:28:41.145Z,398
2018-07-24T10:29:43.201Z,409
2018-07-24T10:30:45.265Z,444
2018-07-24T10:31:47.336Z,452
2018-07-24T10:32:49.390Z,454
2018-07-24T10:33:51.447Z,453
2018-07-24T10:34:53.507Z,452
2018-07-24T10:35:55.569Z,457
2018-07-24T10:36:57.918Z,417
2018-07-24T10:38:00.374Z,443
2018-07-24T10:39:02.435Z,499
2018-07-24T10:40:04.495Z,471
2018-07-24T10:41:06.565Z,458
2018-07-24T10:42:08.911Z,435
2018-07-24T10:43:11.138Z,409
2018-07-24T10:44:13.043Z,380
2018-07-24T10:45:15.098Z,399
2018-07-24T10:46:17.448Z,405
2018-07-24T10:47:19.514Z,424
2018-07-24T10:48:21.585Z,423
2018-07-24T10:49:23.744Z,429
2018-07-24T10:50:26.279Z,448
2018-07-24T10:51:28.924Z,469
2018-07-24T10:52:30.989Z,506
2018-07-24T10:53:33.058Z,470
2018-07-24T10:54:35.408Z,452
2018-07-24T10:55:37.468Z,476
2018-07-24T10:56:39.535Z,455
2018-07-24T10:57:41.914Z,458
2018-07-24T10:58:43.980Z,456
2018-07-24T10:59:46.048Z,494
2018-07-24T11:00:48.116Z,503
2018-07-24T11:01:50.480Z,480
2018-07-24T11:02:52.542Z,505
2018-07-24T11:03:54.612Z,511
2018-07-24T11:04:56.685Z,450
2018-07-24T11:05:58.759Z,455
2018-07-24T11:07:00.818Z,448
2018-07-24T11:08:02.893Z,427
2018-07-24T11:09:04.956Z,459
2018-07-24T11:10:07.024Z,471
2018-07-24T11:11:09.096Z,469
2018-07-24T11:12:11.159Z,515
2018-07-24T11:13:13.216Z,543
2018-07-24T11:14:15.295Z,470
2018-07-24T11:15:17.363Z,461
2018-07-24T11:16:19.427Z,489
2018-07-24T11:17:21.789Z,485
2018-07-24T11:18:23.845Z,496
2018-07-24T11:19:26.210Z,488
2018-07-24T11:20:28.277Z,504
2018-07-24T11:21:30.346Z,428
2018-07-24T11:22:32.685Z,426
2018-07-24T11:23:34.499Z,449
2018-07-24T11:24:36.553Z,515
2018-07-24T11:25:38.614Z,489
2018-07-24T11:26:40.990Z,453
2018-07-24T11:27:43.053Z,468
2018-07-24T11:28:45.117Z,458
2018-07-24T11:29:47.184Z,466
2018-07-24T11:30:49.540Z,475
2018-07-24T11:31:51.613Z,460
2018-07-24T11:32:54.127Z,468
2018-07-24T11:33:56.580Z,453
2018-07-24T11:34:58.640Z,469
2018-07-24T11:36:01.507Z,488
2018-07-24T11:37:03.777Z,482
2018-07-24T11:38:05.847Z,491
2018-07-24T11:39:07.926Z,517
2018-07-24T11:40:10.294Z,509
2018-07-24T11:41:12.374Z,514
2018-07-24T11:42:14.454Z,492
2018-07-24T11:43:16.527Z,486
2018-07-24T11:44:18.990Z,495
2018-07-24T11:45:21.366Z,490
2018-07-24T11:46:23.433Z,490
2018-07-24T11:47:25.509Z,480
2018-07-24T11:48:27.582Z,503
2018-07-24T11:49:29.663Z,505
2018-07-24T11:50:31.736Z,491
2018-07-24T11:51:34.272Z,534
2018-07-24T11:52:36.287Z,519
2018-07-24T11:53:38.354Z,485
2018-07-24T11:54:40.431Z,478
2018-07-24T11:55:42.487Z,460
2018-07-24T11:56:44.561Z,511
2018-07-24T11:57:46.702Z,510
2018-07-24T11:58:48.702Z,494
2018-07-24T11:59:50.783Z,549
2018-07-24T12:00:52.843Z,512
2018-07-24T12:01:54.908Z,516
2018-07-24T12:02:56.976Z,548
2018-07-24T12:03:59.073Z,565
2018-07-24T12:05:01.420Z,536
2018-07-24T12:06:03.486Z,543
2018-07-24T12:07:05.566Z,561
2018-07-24T12:08:07.620Z,553
2018-07-24T12:09:09.744Z,516
2018-07-24T12:10:11.771Z,524
2018-07-24T12:11:13.836Z,495
2018-07-24T12:12:15.904Z,436
2018-07-24T12:13:18.560Z,482
2018-07-24T12:14:20.626Z,507
2018-07-24T12:15:22.697Z,463
2018-07-24T12:16:24.766Z,474
2018-07-24T12:17:27.225Z,469
2018-07-24T12:18:29.289Z,470
2018-07-24T12:19:31.365Z,488
2018-07-24T12:20:33.435Z,485
2018-07-24T12:21:35.891Z,482
2018-07-24T12:22:38.244Z,486
2018-07-24T12:23:40.317Z,451
2018-07-24T12:24:42.380Z,454
2018-07-24T12:25:44.443Z,494
2018-07-24T12:26:46.513Z,487
2018-07-24T12:27:48.588Z,487
2018-07-24T12:28:50.643Z,471
2018-07-24T12:29:52.722Z,440
2018-07-24T12:30:54.795Z,428
2018-07-24T12:31:57.147Z,468
2018-07-24T12:32:59.225Z,504
2018-07-24T12:34:01.680Z,490
2018-07-24T12:35:04.434Z,490
2018-07-24T12:36:06.588Z,512
2018-07-24T12:37:08.873Z,507
2018-07-24T12:38:11.320Z,495
2018-07-24T12:39:13.778Z,494
2018-07-24T12:40:15.855Z,515
2018-07-24T12:41:17.914Z,488
2018-07-24T12:42:20.008Z,468
2018-07-24T12:43:22.056Z,455
2018-07-24T12:44:24.121Z,486
2018-07-24T12:45:26.191Z,486
2018-07-24T12:46:28.267Z,475
2018-07-24T12:47:30.338Z,477
2018-07-24T12:48:32.413Z,440
2018-07-24T12:49:34.482Z,450
2018-07-24T12:50:36.838Z,440
2018-07-24T12:51:38.905Z,436
2018-07-24T12:52:40.985Z,451
2018-07-24T12:53:43.041Z,478
2018-07-24T12:54:45.108Z,492
2018-07-24T12:55:47.757Z,470
2018-07-24T12:56:49.820Z,462
2018-07-24T12:57:51.919Z,461
2018-07-24T12:58:53.975Z,415
2018-07-24T12:59:56.426Z,417
2018-07-24T13:00:58.490Z,446
2018-07-24T13:02:00.569Z,435
2018-07-24T13:03:02.686Z,434
2018-07-24T13:04:04.867Z,439
2018-07-24T13:05:07.119Z,431
2018-07-24T13:06:09.195Z,445
2018-07-24T13:07:11.253Z,450
2018-07-24T13:08:13.320Z,476
2018-07-24T13:09:15.681Z,455
2018-07-24T13:10:17.735Z,424
2018-07-24T13:11:19.809Z,404
2018-07-24T13:12:21.876Z,382
2018-07-24T13:13:23.953Z,393
2018-07-24T13:14:26.033Z,367
2018-07-24T13:15:28.098Z,413
2018-07-24T13:16:30.175Z,375
2018-07-24T13:17:32.555Z,398
2018-07-24T13:18:34.625Z,409
2018-07-24T13:19:36.763Z,111
2018-07-24T13:20:39.196Z,292
2018-07-24T13:21:41.261Z,392
2018-07-24T13:22:43.716Z,415
2018-07-24T13:23:45.788Z,430
2018-07-24T13:24:47.870Z,453
2018-07-24T13:25:49.924Z,471
2018-07-24T13:26:52.014Z,456
2018-07-24T13:27:54.406Z,471
2018-07-24T13:28:56.456Z,476
2018-07-24T13:29:58.917Z,479
2018-07-24T13:31:00.995Z,438
2018-07-24T13:32:03.125Z,247
2018-07-24T13:33:05.423Z,427
2018-07-24T13:34:07.487Z,169
2018-07-24T13:35:09.568Z,395
2018-07-24T13:36:11.636Z,419
2018-07-24T13:37:14.126Z,395
2018-07-24T13:38:16.167Z,364
2018-07-24T13:39:18.232Z,360
2018-07-24T13:40:20.309Z,401
2018-07-24T13:41:22.660Z,397
2018-07-24T13:42:24.731Z,407
2018-07-24T13:43:27.081Z,411
2018-07-24T13:44:29.155Z,407
2018-07-24T13:45:31.227Z,398
2018-07-24T13:46:33.682Z,401
2018-07-24T13:47:35.762Z,412
2018-07-24T13:48:37.835Z,406
2018-07-24T13:49:39.907Z,399
2018-07-24T13:50:41.986Z,408
2018-07-24T13:51:44.060Z,389
2018-07-24T13:52:46.131Z,397
2018-07-24T13:53:48.210Z,392
2018-07-24T13:54:50.276Z,375
2018-07-24T13:55:52.349Z,375
2018-07-24T13:56:54.426Z,365
2018-07-24T13:57:56.500Z,375
2018-07-24T13:58:58.577Z,390
2018-07-24T14:00:01.056Z,392
2018-07-24T14:01:03.126Z,385
2018-07-24T14:02:05.201Z,415
2018-07-24T14:03:07.282Z,412
2018-07-24T14:04:09.345Z,378
2018-07-24T14:05:11.420Z,356
2018-07-24T14:06:13.501Z,361
2018-07-24T14:07:15.583Z,365
2018-07-24T14:08:18.015Z,351
2018-07-24T14:09:20.077Z,352
2018-07-24T14:10:22.154Z,355
2018-07-24T14:11:24.239Z,349
2018-07-24T14:12:26.311Z,329
2018-07-24T14:13:28.392Z,314
2018-07-24T14:14:30.855Z,328
2018-07-24T14:15:32.929Z,345
2018-07-24T14:16:34.996Z,374
2018-07-24T14:17:37.077Z,390
2018-07-24T14:18:39.157Z,350
2018-07-24T14:19:41.233Z,333
2018-07-24T14:20:43.322Z,363
2018-07-24T14:21:45.473Z,346
2018-07-24T14:22:47.484Z,316
2018-07-24T14:23:50.142Z,331
2018-07-24T14:24:52.225Z,361
2018-07-24T14:25:54.292Z,367
2018-07-24T14:26:56.375Z,369
2018-07-24T14:27:58.446Z,369
2018-07-24T14:29:00.531Z,364
2018-07-24T14:30:02.906Z,345
2018-07-24T14:31:05.021Z,297
2018-07-24T14:32:07.073Z,313
2018-07-24T14:33:09.165Z,325
2018-07-24T14:34:11.632Z,336
2018-07-24T14:35:13.711Z,336
2018-07-24T14:36:15.799Z,324
2018-07-24T14:37:17.866Z,310
2018-07-24T14:38:19.948Z,311
2018-07-24T14:39:22.313Z,343
2018-07-24T14:40:24.423Z,343
2018-07-24T14:41:26.475Z,327
2018-07-24T14:42:28.559Z,319